Time;durP1;ratioP1;P1;durP2;ratioP2;P2;SDS_P1;SDS_P2;PMS_P1;PMS_P2;Temp;Humidity;BMP_temperature;BMP_pressure;BME280_temperature;BME280_humidity;BME280_pressure;Samples;Min_cycle;Max_cycle;Signal;HPM_P1;HPM_P2
2022/10/28 00:02:10;;;;;;;2.63;2.30;;;17.70;72.10;;;;;;5055303;28;20248;-64
2022/10/28 00:04:35;;;;;;;2.58;2.38;;;17.70;72.10;;;;;;5055179;28;20750;-64
2022/10/28 00:07:01;;;;;;;3.50;2.55;;;17.70;72.10;;;;;;5055823;28;20167;-64
2022/10/28 00:09:26;;;;;;;4.30;2.65;;;17.70;72.20;;;;;;5055647;28;20179;-64
2022/10/28 00:11:52;;;;;;;2.55;2.35;;;17.70;72.20;;;;;;5054976;28;20266;-64
2022/10/28 00:14:17;;;;;;;3.03;2.72;;;17.70;72.20;;;;;;5055063;28;20309;-65
2022/10/28 00:16:43;;;;;;;4.93;2.70;;;17.70;72.20;;;;;;5055522;28;20163;-65
2022/10/28 00:19:10;;;;;;;2.58;2.38;;;17.70;72.20;;;;;;5054492;28;20179;-65
2022/10/28 00:21:36;;;;;;;1.92;1.83;;;17.70;72.20;;;;;;5054383;28;20175;-65
2022/10/28 00:24:01;;;;;;;3.03;2.72;;;17.70;72.20;;;;;;5055171;28;20211;-64
2022/10/28 00:26:31;;;;;;;2.15;1.95;;;17.60;72.10;;;;;;5054686;28;20194;-64
2022/10/28 00:29:10;;;;;;;2.92;2.67;;;17.70;72.20;;;;;;5055095;28;20634;-64
2022/10/28 00:31:36;;;;;;;2.67;2.47;;;17.70;72.20;;;;;;5053502;28;20178;-64
2022/10/28 00:34:03;;;;;;;2.65;2.45;;;17.60;72.00;;;;;;5055184;28;20171;-64
2022/10/28 00:36:34;;;;;;;2.60;2.40;;;17.70;72.20;;;;;;5055450;28;20183;-64
2022/10/28 00:39:00;;;;;;;3.55;2.33;;;17.70;72.20;;;;;;5054196;28;20175;-64
2022/10/28 00:41:36;;;;;;;2.53;2.30;;;17.60;72.10;;;;;;5055060;28;20194;-65
2022/10/28 00:44:40;;;;;;;2.63;2.40;;;17.60;72.10;;;;;;5054615;28;20211;-64
2022/10/28 00:47:27;;;;;;;2.58;2.35;;;17.70;72.20;;;;;;5053673;28;20248;-64
2022/10/28 00:49:55;;;;;;;2.65;2.22;;;17.60;72.10;;;;;;5054869;28;20638;-64
2022/10/28 00:52:23;;;;;;;2.53;2.33;;;17.60;72.10;;;;;;5054452;28;20191;-64
2022/10/28 00:54:48;;;;;;;2.60;2.40;;;17.60;72.10;;;;;;5053799;28;20183;-64
2022/10/28 00:57:16;;;;;;;2.15;1.95;;;17.60;72.10;;;;;;5053182;28;20178;-64
2022/10/28 00:59:45;;;;;;;3.17;2.60;;;17.60;72.20;;;;;;5052872;28;20179;-64
2022/10/28 01:02:11;;;;;;;2.60;2.10;;;17.70;72.20;;;;;;5053192;28;20207;-64
2022/10/28 01:04:37;;;;;;;2.53;2.33;;;17.60;72.10;;;;;;5053366;28;20256;-64
2022/10/28 01:07:02;;;;;;;2.80;2.60;;;17.60;72.10;;;;;;5052556;28;20261;-64
2022/10/28 01:09:28;;;;;;;3.15;2.20;;;17.60;72.10;;;;;;5054779;28;20178;-64
2022/10/28 01:12:21;;;;;;;2.03;1.92;;;17.60;72.10;;;;;;5054547;28;20167;-64
2022/10/28 01:14:54;;;;;;;2.25;2.05;;;17.60;72.10;;;;;;5052590;28;20234;-65
2022/10/28 01:17:41;;;;;;;2.42;2.22;;;17.60;72.20;;;;;;5052985;28;20175;-64
2022/10/28 01:20:28;;;;;;;2.13;2.03;;;17.60;72.10;;;;;;5052896;28;20179;-65
2022/10/28 01:23:06;;;;;;;2.83;2.50;;;17.60;72.10;;;;;;5053620;28;20596;-64
2022/10/28 01:25:37;;;;;;;2.50;2.30;;;17.60;72.10;;;;;;5054304;28;20171;-64
2022/10/28 01:28:27;;;;;;;2.70;2.50;;;17.60;72.10;;;;;;5053378;28;20179;-64
2022/10/28 01:31:05;;;;;;;3.55;2.47;;;17.60;72.20;;;;;;5052951;28;20563;-63
2022/10/28 01:33:35;;;;;;;2.40;2.20;;;17.60;72.20;;;;;;5052874;28;20179;-64
2022/10/28 01:36:07;;;;;;;2.50;2.00;;;17.60;72.10;;;;;;5051797;28;20266;-64
2022/10/28 01:38:55;;;;;;;2.28;2.08;;;17.60;72.20;;;;;;5052829;28;20744;-65
2022/10/28 01:41:21;;;;;;;3.15;2.50;;;17.60;72.10;;;;;;5052765;28;20190;-64
2022/10/28 01:43:52;;;;;;;2.53;2.33;;;17.60;72.20;;;;;;5053053;28;20207;-64
2022/10/28 01:46:28;;;;;;;2.75;2.55;;;17.60;72.10;;;;;;5052455;28;20233;-64
2022/10/28 01:48:56;;;;;;;2.40;2.20;;;17.60;72.20;;;;;;5052249;28;20179;-64
2022/10/28 01:51:34;;;;;;;2.58;2.38;;;17.60;72.20;;;;;;5052649;28;20254;-64
2022/10/28 01:54:00;;;;;;;2.38;2.13;;;17.60;72.10;;;;;;5052160;28;20638;-64
2022/10/28 01:56:28;;;;;;;3.22;2.67;;;17.50;72.10;;;;;;5051865;28;20175;-64
2022/10/28 01:58:54;;;;;;;4.30;2.47;;;17.60;72.10;;;;;;5052462;28;20188;-64
2022/10/28 02:01:20;;;;;;;2.30;2.10;;;17.60;72.10;;;;;;5052153;28;20172;-64
2022/10/28 02:03:46;;;;;;;2.45;2.25;;;17.60;72.20;;;;;;5051798;28;20218;-64
2022/10/28 02:06:18;;;;;;;3.58;2.53;;;17.60;72.20;;;;;;5051597;28;20254;-64
2022/10/28 02:08:50;;;;;;;2.63;2.42;;;17.60;72.10;;;;;;5053585;28;20183;-64
2022/10/28 02:11:37;;;;;;;2.30;2.10;;;17.60;72.10;;;;;;5051359;28;20236;-65
2022/10/28 02:14:15;;;;;;;3.03;2.15;;;17.60;73.00;;;;;;5052108;28;20306;-64
2022/10/28 02:16:43;;;;;;;2.50;2.30;;;17.60;72.10;;;;;;5053606;28;20269;-65
2022/10/28 02:19:30;;;;;;;2.58;2.38;;;17.60;72.20;;;;;;5052552;28;20172;-65
2022/10/28 02:21:55;;;;;;;2.30;2.10;;;17.50;72.10;;;;;;5052973;28;20190;-64
2022/10/28 02:24:49;;;;;;;2.47;2.28;;;17.50;72.10;;;;;;5052400;28;20211;-64
2022/10/28 02:27:42;;;;;;;2.70;2.15;;;17.50;72.10;;;;;;5050191;28;20271;-64
2022/10/28 02:30:16;;;;;;;2.42;2.00;;;17.50;72.10;;;;;;5052724;28;20225;-64
2022/10/28 02:32:43;;;;;;;2.70;2.17;;;17.60;72.10;;;;;;5051513;28;20175;-64
2022/10/28 02:35:39;;;;;;;3.28;2.33;;;17.50;72.10;;;;;;5051642;28;20183;-65
2022/10/28 02:38:08;;;;;;;2.60;2.38;;;17.60;72.20;;;;;;5050262;28;20189;-65
2022/10/28 02:40:34;;;;;;;2.15;2.05;;;17.50;72.10;;;;;;5051776;28;20211;-65
2022/10/28 02:43:01;;;;;;;2.75;2.30;;;17.50;72.10;;;;;;5051824;28;20206;-64
2022/10/28 02:45:33;;;;;;;2.33;2.13;;;17.50;72.10;;;;;;5050905;28;20182;-64
2022/10/28 02:48:02;;;;;;;3.38;2.50;;;17.60;72.20;;;;;;5051414;28;20179;-64
2022/10/28 02:50:31;;;;;;;2.70;2.28;;;17.50;72.10;;;;;;5051761;28;20186;-64
2022/10/28 02:52:58;;;;;;;2.55;2.25;;;17.50;72.10;;;;;;5050606;28;20638;-64
2022/10/28 02:55:23;;;;;;;2.80;2.60;;;17.50;72.10;;;;;;5051621;28;20665;-65
2022/10/28 02:57:49;;;;;;;2.97;2.10;;;17.60;72.20;;;;;;5051665;28;20207;-64
2022/10/28 03:00:19;;;;;;;2.45;2.25;;;17.50;72.10;;;;;;5050861;28;20175;-65
2022/10/28 03:02:45;;;;;;;4.53;2.70;;;17.50;72.10;;;;;;5052623;28;20171;-64
2022/10/28 03:05:10;;;;;;;2.78;2.50;;;17.50;72.10;;;;;;5052304;28;20763;-64
2022/10/28 03:07:36;;;;;;;2.60;2.40;;;17.50;72.10;;;;;;5051926;28;20183;-64
2022/10/28 03:10:01;;;;;;;2.78;2.40;;;17.50;72.10;;;;;;5052559;28;20531;-65
2022/10/28 03:12:27;;;;;;;2.38;2.15;;;17.50;72.20;;;;;;5052774;28;20177;-64
2022/10/28 03:14:52;;;;;;;2.78;2.28;;;17.50;72.20;;;;;;5051887;28;20231;-64
2022/10/28 03:17:18;;;;;;;2.58;2.38;;;17.50;72.10;;;;;;5052102;28;20259;-64
2022/10/28 03:19:43;;;;;;;2.13;2.00;;;17.50;72.10;;;;;;5056721;28;20257;-65
2022/10/28 03:22:09;;;;;;;3.53;2.58;;;17.50;72.10;;;;;;5055543;28;20649;-64
2022/10/28 03:24:34;;;;;;;2.40;2.20;;;17.50;72.10;;;;;;5056901;28;20218;-64
2022/10/28 03:27:00;;;;;;;2.60;2.40;;;17.50;72.20;;;;;;5056568;28;20174;-64
2022/10/28 03:29:25;;;;;;;2.40;2.20;;;17.50;72.10;;;;;;5055793;28;20175;-64
2022/10/28 03:31:51;;;;;;;2.35;2.25;;;17.50;72.10;;;;;;5056338;28;20262;-64
2022/10/28 03:34:16;;;;;;;2.10;1.90;;;17.50;73.00;;;;;;5056018;28;20214;-64
2022/10/28 03:36:42;;;;;;;2.83;2.40;;;17.50;73.00;;;;;;5056230;28;20259;-64
2022/10/28 03:39:07;;;;;;;2.80;2.20;;;17.50;72.10;;;;;;5056360;28;20270;-65
2022/10/28 03:41:33;;;;;;;2.53;2.30;;;17.40;72.10;;;;;;5055566;28;20178;-64
2022/10/28 03:43:59;;;;;;;2.63;2.42;;;17.50;72.20;;;;;;5055683;28;20237;-64
2022/10/28 03:46:24;;;;;;;2.20;2.00;;;17.50;72.20;;;;;;5055340;28;20182;-64
2022/10/28 03:48:50;;;;;;;2.30;2.13;;;17.50;72.10;;;;;;5054635;28;20649;-63
2022/10/28 03:51:15;;;;;;;2.63;2.10;;;17.50;72.10;;;;;;5055849;28;20179;-64
2022/10/28 03:53:41;;;;;;;4.18;2.53;;;17.40;72.20;;;;;;5055958;28;20167;-64
2022/10/28 03:56:06;;;;;;;2.20;2.00;;;17.50;73.00;;;;;;5054994;28;20540;-64
2022/10/28 03:58:32;;;;;;;3.55;2.40;;;17.50;72.10;;;;;;5056139;28;20186;-64
2022/10/28 04:00:57;;;;;;;2.40;2.30;;;17.50;72.10;;;;;;5055858;28;20175;-64
2022/10/28 04:03:23;;;;;;;2.30;2.10;;;17.50;72.10;;;;;;5055135;28;20570;-64
2022/10/28 04:05:48;;;;;;;2.60;2.40;;;17.50;72.10;;;;;;5055802;28;20274;-64
2022/10/28 04:08:15;;;;;;;3.08;2.38;;;17.40;72.20;;;;;;5055589;28;20167;-63
2022/10/28 04:10:41;;;;;;;3.83;2.63;;;17.50;72.20;;;;;;5055353;28;20179;-64
2022/10/28 04:13:06;;;;;;;2.75;2.53;;;17.40;72.10;;;;;;5055523;28;20225;-64
2022/10/28 04:15:32;;;;;;;2.30;2.10;;;17.50;72.20;;;;;;5056044;28;20214;-64
2022/10/28 04:17:57;;;;;;;2.25;2.03;;;17.50;72.20;;;;;;5054837;28;20258;-64
2022/10/28 04:20:23;;;;;;;2.85;2.53;;;17.40;72.10;;;;;;5055514;28;20604;-64
2022/10/28 04:22:49;;;;;;;2.03;1.88;;;17.50;72.10;;;;;;5055659;28;20179;-64
2022/10/28 04:25:14;;;;;;;2.42;2.22;;;17.40;72.10;;;;;;5054691;28;20211;-64
2022/10/28 04:27:40;;;;;;;3.95;2.40;;;17.40;72.10;;;;;;5055613;28;20167;-64
2022/10/28 04:30:06;;;;;;;3.10;2.30;;;17.40;72.10;;;;;;5054306;28;20179;-64
2022/10/28 04:32:31;;;;;;;2.85;2.53;;;17.40;72.10;;;;;;5054675;28;20175;-64
2022/10/28 04:34:57;;;;;;;2.50;2.30;;;17.40;72.10;;;;;;5055413;28;20171;-64
2022/10/28 04:37:22;;;;;;;3.00;2.30;;;17.40;72.20;;;;;;5055428;28;20163;-65
2022/10/28 04:39:48;;;;;;;2.47;2.28;;;17.40;72.10;;;;;;5054833;28;20190;-64
2022/10/28 04:42:13;;;;;;;3.15;2.40;;;17.40;72.10;;;;;;5055038;28;20174;-65
2022/10/28 04:44:39;;;;;;;4.00;2.20;;;17.40;72.10;;;;;;5054522;28;20684;-64
2022/10/28 04:47:04;;;;;;;2.30;2.10;;;17.40;72.10;;;;;;5054924;28;20525;-65
2022/10/28 04:49:30;;;;;;;2.90;2.47;;;17.40;72.10;;;;;;5055190;28;20682;-65
2022/10/28 04:51:55;;;;;;;2.88;2.45;;;17.40;72.10;;;;;;5054311;28;20172;-65
2022/10/28 04:54:21;;;;;;;2.50;2.28;;;17.40;72.10;;;;;;5054825;28;20254;-65
2022/10/28 04:56:46;;;;;;;2.25;2.08;;;17.40;72.10;;;;;;5055195;28;20547;-65
2022/10/28 04:59:12;;;;;;;3.42;2.50;;;17.40;72.20;;;;;;5053967;28;20714;-65
2022/10/28 05:01:37;;;;;;;2.70;2.15;;;17.40;72.10;;;;;;5054928;28;20638;-65
2022/10/28 05:04:03;;;;;;;3.00;2.60;;;17.40;72.10;;;;;;5054459;28;20245;-64
2022/10/28 05:06:28;;;;;;;2.70;2.30;;;17.40;72.10;;;;;;5054158;28;20175;-64
2022/10/28 05:08:54;;;;;;;3.00;2.22;;;17.40;72.10;;;;;;5055066;28;20183;-64
2022/10/28 05:11:20;;;;;;;2.58;2.35;;;17.40;72.20;;;;;;5054534;28;20171;-65
2022/10/28 05:13:45;;;;;;;2.53;2.33;;;17.40;72.10;;;;;;5053614;28;20639;-65
2022/10/28 05:16:11;;;;;;;2.55;2.17;;;17.30;72.10;;;;;;5054175;28;20592;-65
2022/10/28 05:18:36;;;;;;;3.35;2.45;;;17.40;72.10;;;;;;5054663;28;20266;-65
2022/10/28 05:21:02;;;;;;;2.67;2.47;;;17.40;72.10;;;;;;5053381;28;20171;-65
2022/10/28 05:23:27;;;;;;;2.40;2.15;;;17.40;72.20;;;;;;5054866;28;20207;-65
2022/10/28 05:25:53;;;;;;;2.17;1.98;;;17.40;72.20;;;;;;5054695;28;20320;-64
2022/10/28 05:28:18;;;;;;;2.17;2.08;;;17.30;72.10;;;;;;5053453;28;20236;-64
2022/10/28 05:30:44;;;;;;;2.88;2.42;;;17.40;72.20;;;;;;5054320;28;20244;-64
2022/10/28 05:33:09;;;;;;;3.17;2.25;;;17.40;72.20;;;;;;5054073;28;20190;-64
2022/10/28 05:35:35;;;;;;;2.72;2.53;;;17.40;72.10;;;;;;5053484;28;20258;-65
2022/10/28 05:38:01;;;;;;;2.35;2.15;;;17.30;72.10;;;;;;5054166;28;20175;-65
2022/10/28 05:40:26;;;;;;;3.28;2.45;;;17.40;72.20;;;;;;5054321;28;20266;-65
2022/10/28 05:42:52;;;;;;;2.42;2.22;;;17.30;72.10;;;;;;5053170;28;20270;-65
2022/10/28 05:45:17;;;;;;;3.03;2.33;;;17.40;72.20;;;;;;5053729;28;20207;-65
2022/10/28 05:47:44;;;;;;;2.40;2.20;;;17.30;72.10;;;;;;5053932;28;20175;-65
2022/10/28 05:50:10;;;;;;;3.20;2.97;;;17.40;72.20;;;;;;5052911;28;20182;-64
2022/10/28 05:52:36;;;;;;;3.67;2.72;;;17.40;72.20;;;;;;5053861;28;20175;-63
2022/10/28 05:55:01;;;;;;;2.78;2.35;;;17.40;72.10;;;;;;5053345;28;20183;-65
2022/10/28 05:57:27;;;;;;;4.03;2.40;;;17.30;72.10;;;;;;5053721;28;20171;-64
2022/10/28 05:59:52;;;;;;;2.65;2.45;;;17.40;72.20;;;;;;5053632;28;20540;-63
2022/10/28 06:02:18;;;;;;;3.58;2.35;;;17.40;72.10;;;;;;5052738;28;20989;-65
2022/10/28 06:04:43;;;;;;;2.10;2.00;;;17.40;72.20;;;;;;5053693;28;20203;-65
2022/10/28 06:07:09;;;;;;;2.20;2.00;;;17.30;72.10;;;;;;5053278;28;20502;-64
2022/10/28 06:09:34;;;;;;;3.13;2.17;;;17.40;72.10;;;;;;5052792;28;20171;-64
2022/10/28 06:12:00;;;;;;;2.47;2.28;;;17.30;72.10;;;;;;5053056;28;20179;-62
2022/10/28 06:14:25;;;;;;;2.17;2.08;;;17.30;72.10;;;;;;5053523;28;20223;-65
2022/10/28 06:16:51;;;;;;;3.10;2.53;;;17.30;72.10;;;;;;5052680;28;20278;-65
2022/10/28 06:19:16;;;;;;;2.47;2.28;;;17.40;72.10;;;;;;5053046;28;20181;-66
2022/10/28 06:21:42;;;;;;;2.58;2.35;;;17.30;72.10;;;;;;5053465;28;20178;-65
2022/10/28 06:24:07;;;;;;;2.40;2.20;;;17.40;72.20;;;;;;5052569;28;20550;-65
2022/10/28 06:26:33;;;;;;;2.08;1.90;;;17.30;72.10;;;;;;5053485;28;20637;-64
2022/10/28 06:29:01;;;;;;;2.72;2.53;;;17.40;72.10;;;;;;5053115;28;20559;-64
2022/10/28 06:31:27;;;;;;;2.65;2.25;;;17.30;72.10;;;;;;5052475;28;20178;-64
2022/10/28 06:33:52;;;;;;;2.38;2.20;;;17.30;72.10;;;;;;5052866;28;20541;-62
2022/10/28 06:36:18;;;;;;;2.33;2.13;;;17.30;72.10;;;;;;5052827;28;20613;-66
2022/10/28 06:38:43;;;;;;;2.65;2.35;;;17.40;72.10;;;;;;5052411;28;20175;-63
2022/10/28 06:41:09;;;;;;;2.55;2.00;;;17.40;72.20;;;;;;5052601;28;20167;-63
2022/10/28 06:43:34;;;;;;;2.63;2.42;;;17.40;72.10;;;;;;5052753;28;20199;-63
2022/10/28 06:46:01;;;;;;;2.97;2.40;;;17.30;72.00;;;;;;5051824;28;20179;-64
2022/10/28 06:48:26;;;;;;;2.60;2.30;;;17.40;72.10;;;;;;5052783;28;20183;-64
2022/10/28 06:50:54;;;;;;;2.67;2.42;;;17.30;72.00;;;;;;5053105;28;20177;-65
2022/10/28 06:53:20;;;;;;;3.08;2.70;;;17.30;72.10;;;;;;5051342;28;20618;-65
2022/10/28 06:55:55;;;;;;;2.63;2.42;;;17.30;72.00;;;;;;5052879;28;20178;-65
2022/10/28 06:58:22;;;;;;;2.72;2.53;;;17.40;72.10;;;;;;5051995;28;20183;-65
2022/10/28 07:00:47;;;;;;;2.80;2.30;;;17.30;72.00;;;;;;5052830;28;20171;-65
2022/10/28 07:03:13;;;;;;;2.20;2.00;;;17.40;72.10;;;;;;5052410;28;20171;-64
2022/10/28 07:05:38;;;;;;;2.53;2.33;;;17.40;72.00;;;;;;5052137;28;20232;-65
2022/10/28 07:08:04;;;;;;;2.72;2.28;;;17.40;72.10;;;;;;5052576;28;20267;-65
2022/10/28 07:10:29;;;;;;;3.05;2.38;;;17.40;72.00;;;;;;5052668;28;20175;-64
2022/10/28 07:12:55;;;;;;;2.13;1.95;;;17.40;72.00;;;;;;5051791;28;20647;-65
2022/10/28 07:15:21;;;;;;;2.70;2.50;;;17.40;72.00;;;;;;5052512;28;20179;-65
2022/10/28 07:17:56;;;;;;;3.08;2.15;;;17.40;72.00;;;;;;5052668;28;20484;-65
2022/10/28 07:20:22;;;;;;;2.90;2.38;;;17.30;72.00;;;;;;5052001;28;20190;-66
2022/10/28 07:22:53;;;;;;;4.07;2.33;;;17.40;71.90;;;;;;5052644;28;20258;-68
2022/10/28 07:25:19;;;;;;;3.63;2.67;;;17.40;72.00;;;;;;5051113;28;20608;-69
2022/10/28 07:27:44;;;;;;;3.53;2.65;;;17.40;72.00;;;;;;5051644;28;20164;-68
2022/10/28 07:30:10;;;;;;;3.22;2.80;;;17.40;71.90;;;;;;5052283;28;20174;-68
2022/10/28 07:32:36;;;;;;;2.97;2.63;;;17.40;71.80;;;;;;5052375;28;20175;-66
2022/10/28 07:35:02;;;;;;;4.03;2.95;;;17.50;71.90;;;;;;5051616;28;20186;-69
2022/10/28 07:37:27;;;;;;;3.20;2.47;;;17.50;72.10;;;;;;5052887;28;20174;-71
2022/10/28 07:39:53;;;;;;;2.70;2.15;;;17.50;71.80;;;;;;5052312;28;20638;-70
2022/10/28 07:42:19;;;;;;;4.75;2.42;;;17.60;71.70;;;;;;5051504;28;20171;-71
2022/10/28 07:44:44;;;;;;;3.30;3.00;;;17.60;71.60;;;;;;5052252;28;20213;-71
2022/10/28 07:47:10;;;;;;;2.70;2.40;;;17.60;71.60;;;;;;5052275;28;20175;-72
2022/10/28 07:49:35;;;;;;;3.42;2.63;;;17.70;71.70;;;;;;5051803;28;20179;-72
2022/10/28 07:52:01;;;;;;;2.92;2.47;;;17.70;71.60;;;;;;5052128;28;20175;-72
2022/10/28 07:54:27;;;;;;;4.72;2.88;;;17.70;71.70;;;;;;5052396;28;20229;-71
2022/10/28 07:56:53;;;;;;;4.45;2.40;;;17.70;71.70;;;;;;5051723;28;20179;-70
2022/10/28 07:59:19;;;;;;;4.18;2.30;;;17.80;71.80;;;;;;5052035;28;20175;-69
2022/10/28 08:01:45;;;;;;;3.55;2.28;;;17.80;71.80;;;;;;5051547;28;20626;-69
2022/10/28 08:04:11;;;;;;;4.85;2.72;;;17.80;71.80;;;;;;5052045;28;20215;-69
2022/10/28 08:06:36;;;;;;;4.18;2.50;;;17.80;71.80;;;;;;5055699;28;20182;-68
2022/10/28 08:09:02;;;;;;;3.03;2.50;;;17.90;71.70;;;;;;5055002;28;20175;-68
2022/10/28 08:11:27;;;;;;;3.80;2.83;;;17.80;71.60;;;;;;5056239;28;20167;-70
2022/10/28 08:13:54;;;;;;;2.53;2.33;;;17.90;71.50;;;;;;5055342;28;20295;-70
2022/10/28 08:16:20;;;;;;;3.45;2.47;;;17.90;71.50;;;;;;5055001;28;20202;-70
2022/10/28 08:18:45;;;;;;;3.15;2.60;;;17.90;71.70;;;;;;5055584;28;20545;-69
2022/10/28 08:21:11;;;;;;;5.68;2.47;;;18.00;71.80;;;;;;5055296;28;20179;-70
2022/10/28 08:23:40;;;;;;;4.63;2.80;;;18.00;71.70;;;;;;5055057;28;20210;-69
2022/10/28 08:26:05;;;;;;;3.78;2.50;;;18.00;71.70;;;;;;5055423;28;20542;-68
2022/10/28 08:28:31;;;;;;;3.15;2.50;;;18.00;71.70;;;;;;5055436;28;20179;-68
2022/10/28 08:31:01;;;;;;;3.17;2.53;;;18.00;71.70;;;;;;5054354;28;20173;-67
2022/10/28 08:33:26;;;;;;;3.60;2.25;;;18.00;71.70;;;;;;5055384;28;20237;-67
2022/10/28 08:35:52;;;;;;;4.80;2.60;;;18.00;71.60;;;;;;5055618;28;20168;-68
2022/10/28 08:38:17;;;;;;;3.60;2.63;;;18.00;71.60;;;;;;5054459;28;20167;-69
2022/10/28 08:41:04;;;;;;;4.28;2.90;;;18.00;71.70;;;;;;5055314;28;20261;-69
2022/10/28 08:43:49;;;;;;;3.40;2.72;;;18.00;71.80;;;;;;5054367;28;20295;-69
2022/10/28 08:46:40;;;;;;;2.88;2.28;;;18.00;71.80;;;;;;5054167;28;20183;-69
2022/10/28 08:49:12;;;;;;;5.55;2.50;;;18.00;71.80;;;;;;5053595;28;20652;-69
2022/10/28 08:51:54;;;;;;;2.72;2.40;;;18.00;71.80;;;;;;5054796;28;20184;-69
2022/10/28 08:54:23;;;;;;;4.05;2.70;;;18.00;71.70;;;;;;5053792;28;20201;-69
2022/10/28 08:56:49;;;;;;;3.00;2.70;;;18.00;71.70;;;;;;5054882;28;20214;-69
2022/10/28 08:59:24;;;;;;;3.67;2.33;;;18.10;71.60;;;;;;5052982;28;20253;-69
2022/10/28 09:01:56;;;;;;;7.72;3.08;;;18.10;71.40;;;;;;5053881;28;20170;-69
2022/10/28 09:04:38;;;;;;;3.50;2.22;;;18.10;71.40;;;;;;5053554;28;20701;-69
2022/10/28 09:07:03;;;;;;;3.70;2.30;;;18.20;71.60;;;;;;5053996;28;20179;-68
2022/10/28 09:09:29;;;;;;;2.40;2.20;;;18.20;71.60;;;;;;5053835;28;20183;-68
2022/10/28 09:12:23;;;;;;;4.30;2.83;;;18.20;71.40;;;;;;5054021;28;20657;-69
2022/10/28 09:15:19;;;;;;;3.15;2.40;;;18.20;71.60;;;;;;5054699;28;20229;-69
2022/10/28 09:17:52;;;;;;;3.50;2.58;;;18.20;71.60;;;;;;5054612;28;20182;-69
2022/10/28 09:20:42;;;;;;;3.65;2.35;;;18.30;71.60;;;;;;5053686;28;20171;-69
2022/10/28 09:23:26;;;;;;;3.38;2.60;;;18.30;71.50;;;;;;5039032;28;20257;-69
2022/10/28 09:25:51;;;;;;;3.30;2.50;;;18.30;71.50;;;;;;5053204;28;20175;-68
2022/10/28 09:28:20;;;;;;;2.92;2.63;;;18.40;71.40;;;;;;5053435;28;20182;-68
2022/10/28 09:31:11;;;;;;;3.30;2.75;;;18.50;71.50;;;;;;5053201;28;20626;-69
2022/10/28 09:34:20;;;;;;;3.38;2.30;;;18.50;71.30;;;;;;5052675;28;20175;-68
2022/10/28 09:36:51;;;;;;;3.20;2.60;;;18.50;71.40;;;;;;5053899;28;20236;-69
2022/10/28 09:39:40;;;;;;;6.43;2.80;;;18.60;71.60;;;;;;5054041;28;20179;-71
2022/10/28 09:42:05;;;;;;;4.93;3.80;;;18.50;71.60;;;;;;5038695;28;20175;-71
2022/10/28 09:44:40;;;;;;;3.65;2.72;;;18.60;71.70;;;;;;5054257;28;20269;-72
2022/10/28 09:47:16;;;;;;;3.30;2.60;;;18.60;71.80;;;;;;5035715;28;20171;-70
2022/10/28 09:49:42;;;;;;;3.15;2.80;;;18.60;72.00;;;;;;5036831;28;20186;-70
2022/10/28 09:52:07;;;;;;;3.55;2.95;;;18.60;72.20;;;;;;5052747;28;20201;-68
2022/10/28 09:54:38;;;;;;;4.57;3.13;;;18.60;72.30;;;;;;5053211;28;20167;-68
2022/10/28 09:57:03;;;;;;;5.03;3.08;;;18.70;72.30;;;;;;5054120;28;20175;-68
2022/10/28 09:59:29;;;;;;;4.20;2.70;;;18.70;72.40;;;;;;5052763;28;20186;-68
2022/10/28 10:01:54;;;;;;;3.90;2.90;;;18.70;72.40;;;;;;5051977;28;20174;-69
2022/10/28 10:04:24;;;;;;;4.68;2.97;;;18.70;72.40;;;;;;5053375;28;20781;-68
2022/10/28 10:06:52;;;;;;;6.22;3.08;;;18.70;72.40;;;;;;5053823;28;20182;-69
2022/10/28 10:09:31;;;;;;;4.15;2.75;;;18.70;72.40;;;;;;5035310;28;20232;-69
2022/10/28 10:12:09;;;;;;;3.33;3.03;;;18.70;72.50;;;;;;5053638;28;20183;-69
2022/10/28 10:14:41;;;;;;;4.55;3.20;;;18.60;72.50;;;;;;5053417;28;20230;-70
2022/10/28 10:17:14;;;;;;;6.43;3.17;;;18.60;72.60;;;;;;5051534;28;20175;-69
2022/10/28 10:20:04;;;;;;;6.18;3.00;;;18.60;72.80;;;;;;5053598;28;20174;-69
2022/10/28 10:22:42;;;;;;;4.15;3.05;;;18.60;72.70;;;;;;5052717;28;20171;-69
2022/10/28 10:25:17;;;;;;;4.75;3.03;;;18.60;72.60;;;;;;5052987;28;20214;-68
2022/10/28 10:28:03;;;;;;;5.78;3.67;;;18.70;72.70;;;;;;5052633;28;20202;-66
2022/10/28 10:30:33;;;;;;;5.95;3.13;;;18.70;72.60;;;;;;5051118;28;20195;-68
2022/10/28 10:33:00;;;;;;;3.88;2.97;;;18.70;72.70;;;;;;5035737;28;20233;-67
2022/10/28 10:35:30;;;;;;;3.25;2.83;;;18.60;72.60;;;;;;5052291;28;20175;-68
2022/10/28 10:37:57;;;;;;;5.82;3.20;;;18.60;72.60;;;;;;5051541;28;20183;-69
2022/10/28 10:40:30;;;;;;;3.50;2.90;;;18.60;72.60;;;;;;5053858;28;20179;-69
2022/10/28 10:42:55;;;;;;;6.28;3.17;;;18.60;72.70;;;;;;5035615;28;20179;-68
2022/10/28 10:45:25;;;;;;;3.15;2.78;;;18.60;72.60;;;;;;5050740;28;20271;-68
2022/10/28 10:48:06;;;;;;;13.45;5.68;;;18.60;72.60;;;;;;5053125;28;20183;-67
2022/10/28 10:50:31;;;;;;;9.15;4.68;;;18.60;72.80;;;;;;5052727;28;20179;-68
2022/10/28 10:52:58;;;;;;;13.95;5.25;;;18.60;72.70;;;;;;5053004;28;20178;-67
2022/10/28 10:55:31;;;;;;;9.60;5.15;;;18.60;72.80;;;;;;5052981;28;20663;-68
2022/10/28 10:57:56;;;;;;;13.63;6.97;;;18.70;72.80;;;;;;5051073;28;20250;-68
2022/10/28 11:00:23;;;;;;;15.32;8.05;;;18.70;72.70;;;;;;5052844;28;20644;-67
2022/10/28 11:02:49;;;;;;;13.88;7.32;;;18.70;72.80;;;;;;5051655;28;20186;-67
2022/10/28 11:05:21;;;;;;;14.35;7.35;;;18.70;72.90;;;;;;5050916;28;20306;-67
2022/10/28 11:07:48;;;;;;;18.05;7.80;;;18.70;72.90;;;;;;5035801;28;20185;-66
2022/10/28 11:10:24;;;;;;;18.70;7.95;;;18.70;72.80;;;;;;5051493;28;20177;-66
2022/10/28 11:12:51;;;;;;;14.60;8.43;;;18.70;72.80;;;;;;5052161;28;20182;-68
2022/10/28 11:15:24;;;;;;;20.92;9.25;;;18.80;72.80;;;;;;5052442;28;20558;-66
2022/10/28 11:18:16;;;;;;;18.40;7.47;;;18.80;72.90;;;;;;5052927;28;20175;-68
2022/10/28 11:20:45;;;;;;;21.83;8.48;;;18.80;72.90;;;;;;5049182;28;20183;-69
2022/10/28 11:23:36;;;;;;;20.15;8.25;;;18.80;72.80;;;;;;5052053;28;20677;-69
2022/10/28 11:26:04;;;;;;;18.73;8.77;;;18.80;72.70;;;;;;5050618;28;20549;-68
2022/10/28 11:28:42;;;;;;;17.02;8.05;;;18.90;72.60;;;;;;5051461;28;20688;-68
2022/10/28 11:31:16;;;;;;;19.38;8.57;;;18.90;72.60;;;;;;5051964;28;20177;-66
2022/10/28 11:33:48;;;;;;;15.85;7.30;;;18.90;72.60;;;;;;5051811;28;20229;-69
2022/10/28 11:36:27;;;;;;;16.30;7.45;;;18.80;72.80;;;;;;5052171;28;20630;-66
2022/10/28 11:39:12;;;;;;;17.90;7.93;;;18.90;72.90;;;;;;5036502;28;20258;-70
2022/10/28 11:42:34;;;;;;;12.05;7.40;;;18.80;72.90;;;;;;5055994;28;20253;-70
2022/10/28 11:45:28;;;;;;;14.65;6.72;;;18.90;72.90;;;;;;5022349;28;20246;-70
2022/10/28 11:48:18;;;;;;;15.35;7.30;;;18.80;72.80;;;;;;5046164;28;20194;-69
2022/10/28 11:51:08;;;;;;;15.77;7.65;;;18.90;72.90;;;;;;5055111;28;20724;-69
2022/10/28 11:53:56;;;;;;;13.65;7.20;;;18.90;72.90;;;;;;5056362;28;20201;-69
2022/10/28 11:56:59;;;;;;;17.25;7.28;;;18.90;72.80;;;;;;5055109;28;20179;-68
2022/10/28 12:00:01;;;;;;;14.75;7.25;;;18.90;72.80;;;;;;5056130;28;20633;-68
2022/10/28 12:02:58;;;;;;;14.48;6.75;;;18.90;72.90;;;;;;5055274;28;20703;-67
2022/10/28 12:05:55;;;;;;;15.15;7.68;;;18.90;72.80;;;;;;5055294;28;20206;-67
2022/10/28 12:09:02;;;;;;;15.88;8.00;;;18.90;72.80;;;;;;5039988;28;20225;-67
2022/10/28 12:11:36;;;;;;;14.50;6.82;;;18.90;72.70;;;;;;5033822;28;20228;-67
2022/10/28 12:14:23;;;;;;;13.82;7.22;;;18.90;72.70;;;;;;5052190;28;20327;-67
2022/10/28 12:17:05;;;;;;;10.88;6.57;;;18.90;72.80;;;;;;5055365;28;20179;-68
2022/10/28 12:19:37;;;;;;;13.40;7.28;;;18.80;72.80;;;;;;5054764;28;20258;-67
2022/10/28 12:22:13;;;;;;;10.65;6.22;;;18.80;72.80;;;;;;5053525;28;20175;-68
2022/10/28 12:24:41;;;;;;;13.48;6.93;;;18.80;72.80;;;;;;5038594;28;20722;-68
2022/10/28 12:27:30;;;;;;;9.95;6.28;;;18.80;72.90;;;;;;5037570;28;20179;-67
2022/10/28 12:30:02;;;;;;;9.93;6.38;;;18.80;72.90;;;;;;5051072;28;20202;-67
2022/10/28 12:32:33;;;;;;;10.70;6.03;;;18.80;72.90;;;;;;5054357;28;20187;-66
2022/10/28 12:35:02;;;;;;;11.32;6.25;;;18.80;72.90;;;;;;5038064;28;20175;-67
2022/10/28 12:37:46;;;;;;;10.25;6.07;;;18.80;72.90;;;;;;5053434;28;20269;-67
2022/10/28 12:40:30;;;;;;;9.25;6.22;;;18.80;73.00;;;;;;5053990;28;20179;-67
2022/10/28 12:43:04;;;;;;;11.77;6.47;;;18.80;73.00;;;;;;5054738;28;20179;-67
2022/10/28 12:45:30;;;;;;;8.95;6.38;;;18.80;72.90;;;;;;5054356;28;20237;-68
2022/10/28 12:48:01;;;;;;;10.02;6.22;;;18.80;72.90;;;;;;5053968;28;20242;-67
2022/10/28 12:50:28;;;;;;;9.15;6.70;;;18.80;72.90;;;;;;5053978;28;20188;-67
2022/10/28 12:53:11;;;;;;;11.18;6.25;;;18.80;72.90;;;;;;5054006;28;20175;-67
2022/10/28 12:55:38;;;;;;;12.68;6.10;;;18.90;72.90;;;;;;5054197;28;20242;-67
2022/10/28 12:58:21;;;;;;;10.38;6.07;;;18.90;72.90;;;;;;5053980;28;20185;-67
2022/10/28 13:00:48;;;;;;;13.23;6.30;;;18.80;72.90;;;;;;5054157;28;20175;-68
2022/10/28 13:03:14;;;;;;;10.32;6.07;;;18.80;73.00;;;;;;5054554;28;20175;-67
2022/10/28 13:05:50;;;;;;;10.15;6.28;;;18.80;73.90;;;;;;5053052;28;20190;-67